createdAt,value
2023-03-03T00:01:30.673Z,5.41
2023-03-03T00:04:01.084Z,5.38
2023-03-03T00:06:30.593Z,5.38
2023-03-03T00:08:59.168Z,5.38
2023-03-03T00:11:27.341Z,5.36
2023-03-03T00:13:58.134Z,5.31
2023-03-03T00:16:29.235Z,5.28
2023-03-03T00:18:58.259Z,5.24
2023-03-03T00:21:30.702Z,5.24
2023-03-03T00:24:13.524Z,5.26
2023-03-03T00:26:43.847Z,5.28
2023-03-03T00:29:35.943Z,5.27
2023-03-03T00:32:25.540Z,5.25
2023-03-03T00:34:55.012Z,5.25
2023-03-03T00:37:30.204Z,5.21
2023-03-03T00:40:23.916Z,5.16
2023-03-03T00:42:54.431Z,5.07
2023-03-03T00:45:29.227Z,5.01
2023-03-03T00:47:58.001Z,5.02
2023-03-03T00:50:32.890Z,5.07
2023-03-03T00:53:07.953Z,5.15
2023-03-03T00:55:36.633Z,5.17
2023-03-03T00:58:05.733Z,5.06
2023-03-03T01:00:39.697Z,5.00
2023-03-03T01:03:14.088Z,5.04
2023-03-03T01:05:42.713Z,5.13
2023-03-03T01:08:12.433Z,5.17
2023-03-03T01:10:44.019Z,5.15
2023-03-03T01:13:12.831Z,5.10
2023-03-03T01:15:42.084Z,5.11
2023-03-03T01:18:11.609Z,5.06
2023-03-03T01:20:40.309Z,5.07
2023-03-03T01:23:08.850Z,5.04
2023-03-03T01:25:38.610Z,4.98
2023-03-03T01:28:07.211Z,5.03
2023-03-03T01:30:35.749Z,4.92
2023-03-03T01:33:03.843Z,4.82
2023-03-03T01:35:32.093Z,4.78
2023-03-03T01:38:00.486Z,4.83
2023-03-03T01:40:32.296Z,4.91
2023-03-03T01:43:02.231Z,4.89
2023-03-03T01:45:32.684Z,4.94
2023-03-03T01:48:04.485Z,4.90
2023-03-03T01:50:41.111Z,4.97
2023-03-03T01:53:14.874Z,4.95
2023-03-03T01:55:43.913Z,4.95
2023-03-03T01:58:18.056Z,4.95
2023-03-03T02:00:50.741Z,4.88
2023-03-03T02:03:21.847Z,4.75
2023-03-03T02:05:50.961Z,4.72
2023-03-03T02:08:23.783Z,4.74
2023-03-03T02:10:52.858Z,4.70
2023-03-03T02:13:22.388Z,4.69
2023-03-03T02:15:50.707Z,4.68
2023-03-03T02:18:22.184Z,4.81
2023-03-03T02:20:58.881Z,4.88
2023-03-03T02:23:35.603Z,4.77
2023-03-03T02:26:08.469Z,4.69
2023-03-03T02:28:39.146Z,4.67
2023-03-03T02:31:13.465Z,4.70
2023-03-03T02:33:43.480Z,4.68
2023-03-03T02:36:14.851Z,4.63
2023-03-03T02:38:49.609Z,4.67
2023-03-03T02:41:30.300Z,4.73
2023-03-03T02:44:02.416Z,4.61
2023-03-03T02:46:35.439Z,4.67
2023-03-03T02:49:04.451Z,4.79
2023-03-03T02:51:32.997Z,4.81
2023-03-03T02:54:01.213Z,4.83
2023-03-03T02:56:32.814Z,4.84
2023-03-03T02:59:01.462Z,4.89
2023-03-03T03:01:37.112Z,4.85
2023-03-03T03:04:10.014Z,4.80
2023-03-03T03:06:40.219Z,4.77
2023-03-03T03:09:10.447Z,4.79
2023-03-03T03:11:40.201Z,4.76
2023-03-03T03:14:11.598Z,4.58
2023-03-03T03:16:41.240Z,4.62
2023-03-03T03:19:09.973Z,4.58
2023-03-03T03:21:39.290Z,4.49
2023-03-03T03:24:08.991Z,4.37
2023-03-03T03:26:40.805Z,4.43
2023-03-03T03:29:09.213Z,4.53
2023-03-03T03:31:38.004Z,4.51
2023-03-03T03:34:06.423Z,4.54
2023-03-03T03:36:35.098Z,4.53
2023-03-03T03:39:06.706Z,4.45
2023-03-03T03:41:37.464Z,4.41
2023-03-03T03:44:07.313Z,4.26
2023-03-03T03:46:35.499Z,4.39
2023-03-03T03:49:03.674Z,4.29
2023-03-03T03:51:31.852Z,4.26
2023-03-03T03:54:00.653Z,4.22
2023-03-03T03:56:28.879Z,4.16
2023-03-03T03:59:00.730Z,4.12
2023-03-03T04:01:30.509Z,4.08
2023-03-03T04:03:59.329Z,4.08
2023-03-03T04:06:27.530Z,4.04
2023-03-03T04:08:56.580Z,3.90
2023-03-03T04:11:25.463Z,3.77
2023-03-03T04:13:53.619Z,3.65
2023-03-03T04:16:22.435Z,3.58
2023-03-03T04:18:52.002Z,3.64
2023-03-03T04:21:21.689Z,3.64
2023-03-03T04:23:51.296Z,3.70
2023-03-03T04:26:19.441Z,3.62
2023-03-03T04:28:48.563Z,3.60
2023-03-03T04:31:17.247Z,3.58
2023-03-03T04:33:45.469Z,3.60
2023-03-03T04:36:15.016Z,3.64
2023-03-03T04:38:43.193Z,3.65
2023-03-03T04:41:11.295Z,3.65
2023-03-03T04:43:40.600Z,3.63
2023-03-03T04:46:09.899Z,3.59
2023-03-03T04:48:39.606Z,3.45
2023-03-03T04:51:07.790Z,3.50
2023-03-03T04:53:39.197Z,3.47
2023-03-03T04:56:09.634Z,3.40
2023-03-03T04:58:38.180Z,3.36
2023-03-03T05:01:06.686Z,3.30
2023-03-03T05:03:35.915Z,3.22
2023-03-03T05:06:04.049Z,3.26
2023-03-03T05:08:32.221Z,3.37
2023-03-03T05:11:02.429Z,3.34
2023-03-03T05:13:31.847Z,3.30
2023-03-03T05:16:00.012Z,3.36
2023-03-03T05:18:28.886Z,3.41
2023-03-03T05:20:57.000Z,3.47
2023-03-03T05:23:25.232Z,3.56
2023-03-03T05:25:53.422Z,3.71
2023-03-03T05:28:22.867Z,3.73
2023-03-03T05:30:51.338Z,3.67
2023-03-03T05:33:19.490Z,3.72
2023-03-03T05:35:47.912Z,3.79
2023-03-03T05:38:16.048Z,3.81
2023-03-03T05:40:44.329Z,3.76
2023-03-03T05:43:12.408Z,3.88
2023-03-03T05:45:41.939Z,3.94
2023-03-03T05:48:11.774Z,3.99
2023-03-03T05:50:40.630Z,4.05
2023-03-03T05:53:08.875Z,4.04
2023-03-03T05:55:37.068Z,4.06
2023-03-03T05:58:05.234Z,4.14
2023-03-03T06:00:33.422Z,4.14
2023-03-03T06:03:03.065Z,4.21
2023-03-03T06:05:31.278Z,4.16
2023-03-03T06:08:00.005Z,4.05
2023-03-03T06:10:28.431Z,3.96
2023-03-03T06:12:59.746Z,3.94
2023-03-03T06:15:28.128Z,3.98
2023-03-03T06:17:56.312Z,4.16
2023-03-03T06:20:25.852Z,4.25
2023-03-03T06:22:54.173Z,4.34
2023-03-03T06:25:22.364Z,4.40
2023-03-03T06:27:50.437Z,4.36
2023-03-03T06:30:19.060Z,4.42
2023-03-03T06:32:47.367Z,4.43
2023-03-03T06:35:15.485Z,4.44
2023-03-03T06:37:44.947Z,4.49
2023-03-03T06:40:15.166Z,4.48
2023-03-03T06:42:43.230Z,4.58
2023-03-03T06:45:12.036Z,4.44
2023-03-03T06:47:40.085Z,4.49
2023-03-03T06:50:09.062Z,4.49
2023-03-03T06:52:37.196Z,4.57
2023-03-03T06:55:14.415Z,4.67
2023-03-03T06:57:42.620Z,4.83
2023-03-03T07:00:18.553Z,4.93
2023-03-03T07:02:46.971Z,4.98
2023-03-03T07:05:17.801Z,5.03
2023-03-03T07:07:46.039Z,5.00
2023-03-03T07:10:23.333Z,4.90
2023-03-03T07:12:51.628Z,4.83
2023-03-03T07:15:24.486Z,4.88
2023-03-03T07:17:58.364Z,4.86
2023-03-03T07:20:32.231Z,4.79
2023-03-03T07:23:00.541Z,4.89
2023-03-03T07:25:33.496Z,4.91
2023-03-03T07:28:13.218Z,5.04
2023-03-03T07:30:43.523Z,5.11
2023-03-03T07:33:25.053Z,5.06
2023-03-03T07:35:55.048Z,5.01
2023-03-03T07:38:30.886Z,5.06
2023-03-03T07:41:02.862Z,5.17
2023-03-03T07:43:44.857Z,5.25
2023-03-03T07:46:24.828Z,5.25
2023-03-03T07:48:54.446Z,5.36
2023-03-03T07:51:27.740Z,5.45
2023-03-03T07:54:02.005Z,5.73
2023-03-03T07:56:36.318Z,5.76
2023-03-03T07:59:17.425Z,5.81
2023-03-03T08:01:49.499Z,6.20
2023-03-03T08:04:21.094Z,6.33
2023-03-03T08:06:53.783Z,6.43
2023-03-03T08:09:31.660Z,6.57
2023-03-03T08:12:14.625Z,6.63
2023-03-03T08:14:42.838Z,6.55
2023-03-03T08:17:18.634Z,6.63
2023-03-03T08:19:46.900Z,6.61
2023-03-03T08:22:18.965Z,6.84
2023-03-03T08:24:47.163Z,6.81
2023-03-03T08:27:16.636Z,6.76
2023-03-03T08:29:45.344Z,6.79
2023-03-03T08:32:14.736Z,6.99
2023-03-03T08:34:42.919Z,7.50
2023-03-03T08:37:11.037Z,8.38
2023-03-03T08:39:40.175Z,8.59
2023-03-03T08:42:08.289Z,8.89
2023-03-03T08:44:37.817Z,9.30
2023-03-03T08:47:06.026Z,9.19
2023-03-03T08:49:34.150Z,8.77
2023-03-03T08:52:02.261Z,8.54
2023-03-03T08:54:30.634Z,8.38
2023-03-03T08:56:58.772Z,8.17
2023-03-03T08:59:26.949Z,8.35
2023-03-03T09:01:56.673Z,8.41
2023-03-03T09:04:24.846Z,8.77
2023-03-03T09:06:53.038Z,8.86
2023-03-03T09:09:21.164Z,9.34
2023-03-03T09:11:49.635Z,9.67
2023-03-03T09:14:21.025Z,11.16
2023-03-03T09:16:52.816Z,13.32
2023-03-03T09:19:29.625Z,15.08
2023-03-03T09:22:02.828Z,15.99
2023-03-03T09:24:32.625Z,15.51
2023-03-03T09:27:00.955Z,17.14
2023-03-03T09:29:30.596Z,18.23
2023-03-03T09:32:01.229Z,17.58
2023-03-03T09:34:41.104Z,19.28
2023-03-03T09:37:23.088Z,19.15
2023-03-03T09:39:53.003Z,19.95
2023-03-03T09:42:48.009Z,19.67
2023-03-03T09:45:50.498Z,19.85
2023-03-03T09:48:43.609Z,20.85
2023-03-03T09:51:31.842Z,22.66
2023-03-03T09:54:16.897Z,21.02
2023-03-03T09:56:50.492Z,20.70
2023-03-03T09:59:36.572Z,22.76
2023-03-03T10:02:32.888Z,21.76
2023-03-03T10:05:14.609Z,21.77
2023-03-03T10:07:56.506Z,22.40
2023-03-03T10:10:45.276Z,21.73
2023-03-03T10:13:30.765Z,22.32
2023-03-03T10:16:17.647Z,22.36
2023-03-03T10:18:53.031Z,22.32
2023-03-03T10:21:26.283Z,21.64
2023-03-03T10:23:59.340Z,22.94
2023-03-03T10:27:12.521Z,23.05
2023-03-03T10:29:51.983Z,23.14
2023-03-03T10:32:45.724Z,24.37
2023-03-03T10:35:26.296Z,23.81
2023-03-03T10:38:14.929Z,24.10
2023-03-03T10:40:52.224Z,24.67
2023-03-03T10:43:39.855Z,26.15
2023-03-03T10:46:32.458Z,24.68
2023-03-03T10:49:39.442Z,24.08
2023-03-03T10:52:20.811Z,23.39
2023-03-03T10:55:05.578Z,23.85
2023-03-03T10:57:42.717Z,24.69
2023-03-03T11:00:23.838Z,21.67
2023-03-03T11:03:20.547Z,23.26
2023-03-03T11:05:56.171Z,22.65
2023-03-03T11:08:31.245Z,24.93
2023-03-03T11:11:09.438Z,24.75
2023-03-03T11:13:48.347Z,23.10
2023-03-03T11:16:36.427Z,22.67
2023-03-03T11:19:14.176Z,21.71
2023-03-03T11:21:48.668Z,22.07
2023-03-03T11:24:39.040Z,21.38
2023-03-03T11:27:18.853Z,21.09
2023-03-03T11:29:59.756Z,21.77
2023-03-03T11:32:37.657Z,21.80
2023-03-03T11:35:23.374Z,23.44
2023-03-03T11:38:03.348Z,21.55
2023-03-03T11:40:37.231Z,21.07
2023-03-03T11:43:14.198Z,19.81
2023-03-03T11:45:52.082Z,17.34
2023-03-03T11:48:27.522Z,15.99
2023-03-03T11:51:02.084Z,15.02
2023-03-03T11:54:05.592Z,14.26
2023-03-03T11:56:39.815Z,13.91
2023-03-03T11:59:22.564Z,13.71
2023-03-03T12:01:55.954Z,13.27
2023-03-03T12:04:31.073Z,13.56
2023-03-03T12:07:19.841Z,13.85
2023-03-03T12:09:59.622Z,13.67
2023-03-03T12:12:34.435Z,13.28
2023-03-03T12:15:10.473Z,13.47
2023-03-03T12:17:58.189Z,12.83
2023-03-03T12:20:34.868Z,13.73
2023-03-03T12:23:14.348Z,14.72
2023-03-03T12:25:45.186Z,15.51
2023-03-03T12:28:19.117Z,15.48
2023-03-03T12:31:11.147Z,16.32
2023-03-03T12:33:54.091Z,15.46
2023-03-03T12:37:05.497Z,16.94
2023-03-03T12:39:53.688Z,17.36
2023-03-03T12:42:32.049Z,17.12
2023-03-03T12:45:15.764Z,16.68
2023-03-03T12:47:51.035Z,17.43
2023-03-03T12:50:36.161Z,16.60
2023-03-03T12:53:19.723Z,18.13
2023-03-03T12:55:53.913Z,17.98
2023-03-03T12:58:33.646Z,17.82
2023-03-03T13:01:17.106Z,18.26
2023-03-03T13:03:56.180Z,19.32
2023-03-03T13:06:31.142Z,20.89
2023-03-03T13:09:13.931Z,20.49
2023-03-03T13:11:56.684Z,18.67
2023-03-03T13:14:34.521Z,19.54
2023-03-03T13:17:11.748Z,20.31
2023-03-03T13:19:45.116Z,21.25
2023-03-03T13:22:19.325Z,23.15
2023-03-03T13:25:00.697Z,21.96
2023-03-03T13:27:35.472Z,20.38
2023-03-03T13:30:09.981Z,18.40
2023-03-03T13:32:45.276Z,16.59
2023-03-03T13:35:27.493Z,15.22
2023-03-03T13:37:59.075Z,14.83
2023-03-03T13:40:32.670Z,14.67
2023-03-03T13:43:06.082Z,14.09
2023-03-03T13:45:43.456Z,14.13
2023-03-03T13:48:31.483Z,14.11
2023-03-03T13:51:05.662Z,14.28
2023-03-03T13:53:44.392Z,14.36
2023-03-03T13:56:28.878Z,14.14
2023-03-03T13:59:05.114Z,14.12
2023-03-03T14:01:44.091Z,13.83
2023-03-03T14:04:19.594Z,15.01
2023-03-03T14:06:56.555Z,14.97
2023-03-03T14:09:44.146Z,15.03
2023-03-03T14:12:23.230Z,14.47
2023-03-03T14:15:00.714Z,13.97
2023-03-03T14:17:37.326Z,13.54
2023-03-03T14:20:17.687Z,13.45
2023-03-03T14:22:52.556Z,13.15
2023-03-03T14:25:22.273Z,13.16
2023-03-03T14:28:10.822Z,12.94
2023-03-03T14:30:40.084Z,12.97
2023-03-03T14:33:22.188Z,12.68
2023-03-03T14:36:01.196Z,12.62
2023-03-03T14:38:41.373Z,12.77
2023-03-03T14:41:18.206Z,12.62
2023-03-03T14:43:57.891Z,12.65
2023-03-03T14:46:36.725Z,12.49
2023-03-03T14:49:07.986Z,12.33
2023-03-03T14:51:43.191Z,12.20
2023-03-03T14:54:22.455Z,12.03
2023-03-03T14:57:02.359Z,12.05
2023-03-03T14:59:31.957Z,12.10
2023-03-03T15:02:25.456Z,11.93
2023-03-03T15:05:15.197Z,11.96
2023-03-03T15:07:44.174Z,11.96
2023-03-03T15:10:13.691Z,12.11
2023-03-03T15:12:43.726Z,12.41
2023-03-03T15:15:20.410Z,12.94
2023-03-03T15:18:02.695Z,12.59
2023-03-03T15:20:44.560Z,12.68
2023-03-03T15:23:40.374Z,12.48
2023-03-03T15:26:13.889Z,12.13
2023-03-03T15:28:55.622Z,11.88
2023-03-03T15:31:32.649Z,11.77
2023-03-03T15:34:07.831Z,11.72
2023-03-03T15:36:45.710Z,11.69
2023-03-03T15:39:21.728Z,11.56
2023-03-03T15:42:04.138Z,11.57
2023-03-03T15:44:47.716Z,11.49
2023-03-03T15:47:33.797Z,11.43
2023-03-03T15:50:22.251Z,11.40
2023-03-03T15:53:04.534Z,11.38
2023-03-03T15:55:43.148Z,11.42
2023-03-03T15:58:42.944Z,11.42
2023-03-03T16:01:24.479Z,11.38
2023-03-03T16:03:59.606Z,11.34
2023-03-03T16:06:41.220Z,11.30
2023-03-03T16:09:21.267Z,11.19
2023-03-03T16:11:56.220Z,11.02
2023-03-03T16:14:42.944Z,10.80
2023-03-03T16:17:23.804Z,10.62
2023-03-03T16:20:03.483Z,10.46
2023-03-03T16:22:55.966Z,10.38
2023-03-03T16:25:59.985Z,10.27
2023-03-03T16:28:42.013Z,10.18
2023-03-03T16:31:18.480Z,10.08
2023-03-03T16:33:56.958Z,9.92
2023-03-03T16:36:33.901Z,9.86
2023-03-03T16:39:07.780Z,9.77
2023-03-03T16:41:46.201Z,9.66
2023-03-03T16:44:32.496Z,9.53
2023-03-03T16:47:15.430Z,9.45
2023-03-03T16:49:53.959Z,9.38
2023-03-03T16:52:30.337Z,9.32
2023-03-03T16:55:05.844Z,9.26
2023-03-03T16:57:44.329Z,9.19
2023-03-03T17:00:19.871Z,9.06
2023-03-03T17:03:14.971Z,8.91
2023-03-03T17:05:51.557Z,8.71
2023-03-03T17:08:37.739Z,8.64
2023-03-03T17:11:14.155Z,8.53
2023-03-03T17:14:04.460Z,8.45
2023-03-03T17:16:51.423Z,8.29
2023-03-03T17:19:31.472Z,8.25
2023-03-03T17:22:13.961Z,8.16
2023-03-03T17:24:56.342Z,7.98
2023-03-03T17:27:36.190Z,7.94
2023-03-03T17:30:13.113Z,7.85
2023-03-03T17:33:02.172Z,7.79
2023-03-03T17:35:46.137Z,7.75
2023-03-03T17:38:28.117Z,7.70
2023-03-03T17:41:04.389Z,7.59
2023-03-03T17:43:41.849Z,7.51
2023-03-03T17:46:19.947Z,7.37
2023-03-03T17:49:30.214Z,7.23
2023-03-03T17:52:15.990Z,7.30
2023-03-03T17:55:12.894Z,7.22
2023-03-03T17:57:54.270Z,7.15
2023-03-03T18:00:36.966Z,7.16
2023-03-03T18:03:52.365Z,7.08
2023-03-03T18:06:57.114Z,7.00
2023-03-03T18:09:47.660Z,6.80
2023-03-03T18:12:30.880Z,6.72
2023-03-03T18:15:37.297Z,6.73
2023-03-03T18:18:27.047Z,6.57
2023-03-03T18:21:04.542Z,6.48
2023-03-03T18:23:43.390Z,6.44
2023-03-03T18:26:35.728Z,6.26
2023-03-03T18:29:15.212Z,6.21
2023-03-03T18:32:04.102Z,6.13
2023-03-03T18:34:39.099Z,6.07
2023-03-03T18:37:33.575Z,6.06
2023-03-03T18:40:33.221Z,5.97
2023-03-03T18:43:41.236Z,5.81
2023-03-03T18:46:34.177Z,5.80
2023-03-03T18:49:06.310Z,5.78
2023-03-03T18:52:16.080Z,5.68
2023-03-03T18:55:02.318Z,5.59
2023-03-03T18:57:33.778Z,5.53
2023-03-03T19:00:17.209Z,5.56
2023-03-03T19:02:57.262Z,5.50
2023-03-03T19:05:29.202Z,5.45
2023-03-03T19:08:07.357Z,5.49
2023-03-03T19:10:59.745Z,5.45
2023-03-03T19:13:48.509Z,5.43
2023-03-03T19:16:38.002Z,5.37
2023-03-03T19:19:15.809Z,5.21
2023-03-03T19:21:51.882Z,5.21
2023-03-03T19:24:35.317Z,5.19
2023-03-03T19:27:25.672Z,5.17
2023-03-03T19:30:24.820Z,5.12
2023-03-03T19:33:28.750Z,5.22
2023-03-03T19:36:22.578Z,5.08
2023-03-03T19:39:04.896Z,4.97
2023-03-03T19:41:51.222Z,4.85
2023-03-03T19:44:41.119Z,4.78
2023-03-03T19:47:23.410Z,4.73
2023-03-03T19:50:07.828Z,4.71
2023-03-03T19:52:43.632Z,4.64
2023-03-03T19:55:28.841Z,4.61
2023-03-03T19:58:10.632Z,4.62
2023-03-03T20:00:47.277Z,4.59
2023-03-03T20:03:43.391Z,4.53
2023-03-03T20:06:23.887Z,4.51
2023-03-03T20:09:05.835Z,4.40
2023-03-03T20:11:51.926Z,4.40
2023-03-03T20:14:44.788Z,4.34
2023-03-03T20:17:45.254Z,4.29
2023-03-03T20:20:35.525Z,4.25
2023-03-03T20:23:26.300Z,4.26
2023-03-03T20:26:04.822Z,4.24
2023-03-03T20:28:57.121Z,4.19
2023-03-03T20:31:36.518Z,4.20
2023-03-03T20:34:16.505Z,4.09
2023-03-03T20:36:58.050Z,4.03
2023-03-03T20:39:42.680Z,3.92
2023-03-03T20:42:31.222Z,3.79
2023-03-03T20:45:15.613Z,3.81
2023-03-03T20:47:57.329Z,3.77
2023-03-03T20:50:33.335Z,3.72
2023-03-03T20:53:14.278Z,3.62
2023-03-03T20:55:56.841Z,3.51
2023-03-03T20:58:38.767Z,3.43
2023-03-03T21:01:09.626Z,3.34
2023-03-03T21:03:42.698Z,3.31
2023-03-03T21:06:16.474Z,3.21
2023-03-03T21:08:50.312Z,3.20
2023-03-03T21:11:25.296Z,3.19
2023-03-03T21:13:57.029Z,3.15
2023-03-03T21:16:36.025Z,3.06
2023-03-03T21:19:07.683Z,2.97
2023-03-03T21:21:39.310Z,2.94
2023-03-03T21:24:10.322Z,2.94
2023-03-03T21:26:51.061Z,2.89
2023-03-03T21:29:26.598Z,2.90
2023-03-03T21:31:57.878Z,2.84
2023-03-03T21:34:29.768Z,2.79
2023-03-03T21:36:59.899Z,2.78
2023-03-03T21:39:34.135Z,2.74
2023-03-03T21:42:04.362Z,2.69
2023-03-03T21:44:40.389Z,2.63
2023-03-03T21:47:10.489Z,2.65
2023-03-03T21:49:43.611Z,2.63
2023-03-03T21:52:13.189Z,2.61
2023-03-03T21:54:42.306Z,2.58
2023-03-03T21:57:11.144Z,2.56
2023-03-03T21:59:40.777Z,2.58
2023-03-03T22:02:10.129Z,2.47
2023-03-03T22:04:39.272Z,2.38
2023-03-03T22:07:07.627Z,2.37
2023-03-03T22:09:36.140Z,2.38
2023-03-03T22:12:04.828Z,2.34
2023-03-03T22:14:34.305Z,2.32
2023-03-03T22:17:04.513Z,2.22
2023-03-03T22:19:34.322Z,2.22
2023-03-03T22:22:02.502Z,2.23
2023-03-03T22:24:30.726Z,2.20
2023-03-03T22:26:58.982Z,2.15
2023-03-03T22:29:27.453Z,2.12
2023-03-03T22:31:55.914Z,2.13
2023-03-03T22:34:25.974Z,2.15
2023-03-03T22:36:54.144Z,2.13
2023-03-03T22:39:22.307Z,2.00
2023-03-03T22:41:50.434Z,1.99
2023-03-03T22:44:18.610Z,2.02
2023-03-03T22:46:46.793Z,1.90
2023-03-03T22:49:14.941Z,1.82
2023-03-03T22:51:44.442Z,1.78
2023-03-03T22:54:12.622Z,1.82
2023-03-03T22:56:40.760Z,1.77
2023-03-03T22:59:08.884Z,1.64
2023-03-03T23:01:36.994Z,1.69
2023-03-03T23:04:05.417Z,1.63
2023-03-03T23:06:33.551Z,1.57
2023-03-03T23:09:03.045Z,1.60
2023-03-03T23:11:31.150Z,1.53
2023-03-03T23:13:59.282Z,1.50
2023-03-03T23:16:27.549Z,1.57
2023-03-03T23:18:55.739Z,1.59
2023-03-03T23:21:23.883Z,1.63
2023-03-03T23:23:51.942Z,1.53
2023-03-03T23:26:21.414Z,1.49
2023-03-03T23:28:49.524Z,1.50
2023-03-03T23:31:17.766Z,1.44
2023-03-03T23:33:45.955Z,1.43
2023-03-03T23:36:14.035Z,1.31
2023-03-03T23:38:43.256Z,1.21
2023-03-03T23:41:11.519Z,1.19
2023-03-03T23:43:40.993Z,1.15
2023-03-03T23:46:09.140Z,1.05
2023-03-03T23:48:37.317Z,1.14
2023-03-03T23:51:05.918Z,1.19
2023-03-03T23:53:34.084Z,1.03
2023-03-03T23:56:02.229Z,1.00
2023-03-03T23:58:30.380Z,0.91
